CheckWX is a tool to help pilots better visualize weather data.  It is not intended as a substitute for an official pre-flight weather briefing.

20:16:35 UTC

KCSV METAR
Crossville Memorial-Whitson Field Airport
Crossville, Tennessee, USA
Current

24 mins ago

KCSV 261953Z AUTO VRB03KT 10SM FEW048 28/16 A3022 RMK AO2 SLP212 T02830161
Observed
Jun-26 @ 19:53 UTC
Wind
  • Variable at 3 KTS
Visibility
10 SM
Flight Rules
VFR
Cloud Levels
  • Few at 4,800' AGL
Temperature
28°C / 82°F
Dewpoint
16°C / 61°F
Heat Index
28°C / 82°F
Humidity
48%
Altimeter
30.22" Hg
Pressure
1023.42 hPa
Previous

1 hour ago

KCSV 261853Z AUTO VRB03KT 10SM CLR 28/18 A3023 RMK AO2 SLP215 T02830178
Observed
Jun-26 @ 18:53 UTC
Wind
  • Variable at 3 KTS
Visibility
10 SM
Flight Rules
VFR
Cloud Levels
  • Clear skies
Temperature
28°C / 82°F
Dewpoint
18°C / 64°F
Heat Index
29°C / 84°F
Humidity
55%
Altimeter
30.23" Hg
Pressure
1023.72 hPa
Previous

2 hours ago

KCSV 261753Z AUTO VRB03KT 10SM CLR 28/17 A3024 RMK AO2 SLP220 T02780172 10283 20189 58008
Observed
Jun-26 @ 17:53 UTC
Wind
  • Variable at 3 KTS
Visibility
10 SM
Flight Rules
VFR
Cloud Levels
  • Clear skies
Temperature
28°C / 82°F
Dewpoint
17°C / 63°F
Heat Index
28°C / 83°F
Humidity
51%
Altimeter
30.24" Hg
Pressure
1024.02 hPa